Archival Weather

Heathrow

London, United Kingdom (EGLL)

Report from: Tuesday, September 19, 2023 2:50 PM BST
Current time: Sunday, July 14, 2024 2:48 AM BST

Current weather – Weather history – Daily summaries
Weather forecast

Temperature19.0°C (66.2°F)
Dew point15.0°C (59.0°F)
Winds 18 kts (9.3 m/s, 20.7 mph) Southwest (230°)
Visibility6.2 mi. (10 km)
Clouds Ceiling: Broken clouds 1,700 ft. (518 m)
Overcast 3,100 ft. (945 m)
Altimeter29.68 in.Hg (1005 mB)
Relative humidity78 %
Density altitude984 ft. (300 m)
Remarks Fully automated report
Flight conditions Marginal Visual Meteorological Conditions
Raw dataEGLL 191350Z AUTO 23018KT 9999 BKN017 OVC031 19/15 Q1005
An error has occurred. This application may no longer respond until reloaded. Reload 🗙